sensor_id;sensor_type;location;lat;lon;timestamp;P1;durP1;ratioP1;P2;durP2;ratioP2
4529;SDS011;2277;51.626;7.516;2023-03-05T00:01:48;1.83;;;1.30;;
4529;SDS011;2277;51.626;7.516;2023-03-05T00:04:14;1.40;;;1.30;;
4529;SDS011;2277;51.626;7.516;2023-03-05T00:06:40;3.10;;;1.80;;
4529;SDS011;2277;51.626;7.516;2023-03-05T00:09:06;2.73;;;2.53;;
4529;SDS011;2277;51.626;7.516;2023-03-05T00:11:32;3.87;;;3.40;;
4529;SDS011;2277;51.626;7.516;2023-03-05T00:13:58;1.97;;;1.50;;
4529;SDS011;2277;51.626;7.516;2023-03-05T00:16:26;2.10;;;1.87;;
4529;SDS011;2277;51.626;7.516;2023-03-05T00:18:53;2.30;;;1.13;;
4529;SDS011;2277;51.626;7.516;2023-03-05T00:21:24;4.40;;;2.93;;
4529;SDS011;2277;51.626;7.516;2023-03-05T00:23:52;3.93;;;2.53;;
4529;SDS011;2277;51.626;7.516;2023-03-05T00:26:19;1.80;;;1.70;;
4529;SDS011;2277;51.626;7.516;2023-03-05T00:28:47;2.67;;;2.07;;
4529;SDS011;2277;51.626;7.516;2023-03-05T00:31:14;2.00;;;1.70;;
4529;SDS011;2277;51.626;7.516;2023-03-05T00:33:41;1.17;;;1.07;;
4529;SDS011;2277;51.626;7.516;2023-03-05T00:36:07;2.00;;;1.57;;
4529;SDS011;2277;51.626;7.516;2023-03-05T00:38:33;2.20;;;2.00;;
4529;SDS011;2277;51.626;7.516;2023-03-05T00:40:59;3.17;;;2.30;;
4529;SDS011;2277;51.626;7.516;2023-03-05T00:43:26;2.07;;;1.87;;
4529;SDS011;2277;51.626;7.516;2023-03-05T00:45:51;2.53;;;1.97;;
4529;SDS011;2277;51.626;7.516;2023-03-05T00:48:17;2.83;;;2.63;;
4529;SDS011;2277;51.626;7.516;2023-03-05T00:50:43;3.07;;;1.50;;
4529;SDS011;2277;51.626;7.516;2023-03-05T00:53:10;2.53;;;2.33;;
4529;SDS011;2277;51.626;7.516;2023-03-05T00:55:35;2.87;;;2.60;;
4529;SDS011;2277;51.626;7.516;2023-03-05T00:58:01;2.00;;;1.70;;
4529;SDS011;2277;51.626;7.516;2023-03-05T01:00:27;2.17;;;2.00;;
4529;SDS011;2277;51.626;7.516;2023-03-05T01:02:52;2.40;;;2.20;;
4529;SDS011;2277;51.626;7.516;2023-03-05T01:05:18;5.87;;;2.73;;
4529;SDS011;2277;51.626;7.516;2023-03-05T01:07:44;3.10;;;1.80;;
4529;SDS011;2277;51.626;7.516;2023-03-05T01:10:10;3.07;;;2.80;;
4529;SDS011;2277;51.626;7.516;2023-03-05T01:12:37;1.67;;;1.57;;
4529;SDS011;2277;51.626;7.516;2023-03-05T01:15:03;1.60;;;1.50;;
4529;SDS011;2277;51.626;7.516;2023-03-05T01:17:30;3.77;;;1.73;;
4529;SDS011;2277;51.626;7.516;2023-03-05T01:19:55;2.10;;;1.90;;
4529;SDS011;2277;51.626;7.516;2023-03-05T01:22:21;2.90;;;2.60;;
4529;SDS011;2277;51.626;7.516;2023-03-05T01:24:47;4.10;;;2.23;;
4529;SDS011;2277;51.626;7.516;2023-03-05T01:27:12;2.60;;;1.60;;
4529;SDS011;2277;51.626;7.516;2023-03-05T01:29:38;3.70;;;2.67;;
4529;SDS011;2277;51.626;7.516;2023-03-05T01:32:03;8.67;;;2.60;;
4529;SDS011;2277;51.626;7.516;2023-03-05T01:34:29;3.97;;;2.37;;
4529;SDS011;2277;51.626;7.516;2023-03-05T01:36:55;1.97;;;1.77;;
4529;SDS011;2277;51.626;7.516;2023-03-05T01:39:20;7.80;;;3.07;;
4529;SDS011;2277;51.626;7.516;2023-03-05T01:41:46;2.33;;;1.70;;
4529;SDS011;2277;51.626;7.516;2023-03-05T01:44:29;2.80;;;1.87;;
4529;SDS011;2277;51.626;7.516;2023-03-05T01:46:56;8.03;;;2.20;;
4529;SDS011;2277;51.626;7.516;2023-03-05T01:49:28;2.13;;;1.73;;
4529;SDS011;2277;51.626;7.516;2023-03-05T01:51:58;4.83;;;2.20;;
4529;SDS011;2277;51.626;7.516;2023-03-05T01:54:34;1.83;;;1.73;;
4529;SDS011;2277;51.626;7.516;2023-03-05T01:57:26;1.90;;;1.80;;
4529;SDS011;2277;51.626;7.516;2023-03-05T02:00:17;3.43;;;2.30;;
4529;SDS011;2277;51.626;7.516;2023-03-05T02:02:46;3.47;;;2.60;;
4529;SDS011;2277;51.626;7.516;2023-03-05T02:05:15;3.43;;;2.40;;
4529;SDS011;2277;51.626;7.516;2023-03-05T02:07:44;2.03;;;1.93;;
4529;SDS011;2277;51.626;7.516;2023-03-05T02:10:14;3.40;;;2.03;;
4529;SDS011;2277;51.626;7.516;2023-03-05T02:12:41;2.13;;;1.90;;
4529;SDS011;2277;51.626;7.516;2023-03-05T02:15:08;1.43;;;1.30;;
4529;SDS011;2277;51.626;7.516;2023-03-05T02:17:34;2.23;;;1.87;;
4529;SDS011;2277;51.626;7.516;2023-03-05T02:20:04;2.37;;;1.90;;
4529;SDS011;2277;51.626;7.516;2023-03-05T02:22:33;2.33;;;1.73;;
4529;SDS011;2277;51.626;7.516;2023-03-05T02:24:58;4.00;;;2.60;;
4529;SDS011;2277;51.626;7.516;2023-03-05T02:27:26;2.00;;;1.80;;
4529;SDS011;2277;51.626;7.516;2023-03-05T02:29:59;4.90;;;2.60;;
4529;SDS011;2277;51.626;7.516;2023-03-05T02:32:25;5.23;;;2.50;;
4529;SDS011;2277;51.626;7.516;2023-03-05T02:34:51;2.87;;;1.90;;
4529;SDS011;2277;51.626;7.516;2023-03-05T02:37:16;1.43;;;1.17;;
4529;SDS011;2277;51.626;7.516;2023-03-05T02:39:42;4.83;;;3.00;;
4529;SDS011;2277;51.626;7.516;2023-03-05T02:42:07;2.00;;;1.30;;
4529;SDS011;2277;51.626;7.516;2023-03-05T02:44:33;1.47;;;1.37;;
4529;SDS011;2277;51.626;7.516;2023-03-05T02:46:59;4.60;;;1.80;;
4529;SDS011;2277;51.626;7.516;2023-03-05T02:49:25;1.60;;;1.50;;
4529;SDS011;2277;51.626;7.516;2023-03-05T02:51:50;1.40;;;1.27;;
4529;SDS011;2277;51.626;7.516;2023-03-05T02:54:16;1.47;;;1.37;;
4529;SDS011;2277;51.626;7.516;2023-03-05T02:56:41;2.97;;;2.63;;
4529;SDS011;2277;51.626;7.516;2023-03-05T02:59:07;1.70;;;1.60;;
4529;SDS011;2277;51.626;7.516;2023-03-05T03:01:33;2.30;;;1.97;;
4529;SDS011;2277;51.626;7.516;2023-03-05T03:03:59;2.60;;;2.40;;
4529;SDS011;2277;51.626;7.516;2023-03-05T03:06:24;2.37;;;2.07;;
4529;SDS011;2277;51.626;7.516;2023-03-05T03:08:50;3.40;;;1.90;;
4529;SDS011;2277;51.626;7.516;2023-03-05T03:11:16;1.57;;;1.40;;
4529;SDS011;2277;51.626;7.516;2023-03-05T03:13:42;4.87;;;1.70;;
4529;SDS011;2277;51.626;7.516;2023-03-05T03:16:12;1.90;;;1.70;;
4529;SDS011;2277;51.626;7.516;2023-03-05T03:18:39;1.80;;;1.50;;
4529;SDS011;2277;51.626;7.516;2023-03-05T03:21:05;2.17;;;2.00;;
4529;SDS011;2277;51.626;7.516;2023-03-05T03:23:32;5.13;;;2.80;;
4529;SDS011;2277;51.626;7.516;2023-03-05T03:25:58;3.30;;;2.47;;
4529;SDS011;2277;51.626;7.516;2023-03-05T03:28:24;1.47;;;1.23;;
4529;SDS011;2277;51.626;7.516;2023-03-05T03:30:49;2.40;;;1.67;;
4529;SDS011;2277;51.626;7.516;2023-03-05T03:33:16;3.47;;;1.80;;
4529;SDS011;2277;51.626;7.516;2023-03-05T03:35:42;7.63;;;3.80;;
4529;SDS011;2277;51.626;7.516;2023-03-05T03:38:09;2.60;;;2.03;;
4529;SDS011;2277;51.626;7.516;2023-03-05T03:40:36;2.17;;;1.80;;
4529;SDS011;2277;51.626;7.516;2023-03-05T03:43:02;2.30;;;1.80;;
4529;SDS011;2277;51.626;7.516;2023-03-05T03:45:28;3.87;;;2.50;;
4529;SDS011;2277;51.626;7.516;2023-03-05T03:47:53;2.30;;;2.03;;
4529;SDS011;2277;51.626;7.516;2023-03-05T03:50:19;2.60;;;2.40;;
4529;SDS011;2277;51.626;7.516;2023-03-05T03:52:45;2.87;;;1.60;;
4529;SDS011;2277;51.626;7.516;2023-03-05T03:55:11;2.43;;;1.70;;
4529;SDS011;2277;51.626;7.516;2023-03-05T03:57:37;1.83;;;1.73;;
4529;SDS011;2277;51.626;7.516;2023-03-05T04:00:04;4.50;;;1.90;;
4529;SDS011;2277;51.626;7.516;2023-03-05T04:02:34;1.77;;;1.67;;
4529;SDS011;2277;51.626;7.516;2023-03-05T04:04:59;11.93;;;2.23;;
4529;SDS011;2277;51.626;7.516;2023-03-05T04:07:25;2.37;;;1.97;;
4529;SDS011;2277;51.626;7.516;2023-03-05T04:09:50;2.97;;;1.80;;
4529;SDS011;2277;51.626;7.516;2023-03-05T04:12:16;3.00;;;2.53;;
4529;SDS011;2277;51.626;7.516;2023-03-05T04:14:45;8.23;;;2.90;;
4529;SDS011;2277;51.626;7.516;2023-03-05T04:17:12;2.20;;;1.60;;
4529;SDS011;2277;51.626;7.516;2023-03-05T04:19:38;9.57;;;2.00;;
4529;SDS011;2277;51.626;7.516;2023-03-05T04:22:05;2.20;;;1.30;;
4529;SDS011;2277;51.626;7.516;2023-03-05T04:24:31;2.67;;;2.43;;
4529;SDS011;2277;51.626;7.516;2023-03-05T04:26:57;3.10;;;2.80;;
4529;SDS011;2277;51.626;7.516;2023-03-05T04:29:22;7.00;;;4.50;;
4529;SDS011;2277;51.626;7.516;2023-03-05T04:31:48;11.10;;;3.87;;
4529;SDS011;2277;51.626;7.516;2023-03-05T04:34:13;1.70;;;1.57;;
4529;SDS011;2277;51.626;7.516;2023-03-05T04:36:39;2.20;;;1.53;;
4529;SDS011;2277;51.626;7.516;2023-03-05T04:39:04;1.77;;;1.67;;
4529;SDS011;2277;51.626;7.516;2023-03-05T04:41:30;7.33;;;2.40;;
4529;SDS011;2277;51.626;7.516;2023-03-05T04:43:56;2.70;;;1.90;;
4529;SDS011;2277;51.626;7.516;2023-03-05T04:46:21;2.60;;;2.40;;
4529;SDS011;2277;51.626;7.516;2023-03-05T04:48:47;2.60;;;1.77;;
4529;SDS011;2277;51.626;7.516;2023-03-05T04:51:13;3.50;;;3.20;;
4529;SDS011;2277;51.626;7.516;2023-03-05T04:53:38;2.53;;;2.33;;
4529;SDS011;2277;51.626;7.516;2023-03-05T04:56:04;3.73;;;2.80;;
4529;SDS011;2277;51.626;7.516;2023-03-05T04:58:30;3.17;;;2.87;;
4529;SDS011;2277;51.626;7.516;2023-03-05T05:00:59;2.07;;;1.87;;
4529;SDS011;2277;51.626;7.516;2023-03-05T05:03:26;2.30;;;2.13;;
4529;SDS011;2277;51.626;7.516;2023-03-05T05:05:53;2.70;;;2.33;;
4529;SDS011;2277;51.626;7.516;2023-03-05T05:08:20;5.53;;;3.97;;
4529;SDS011;2277;51.626;7.516;2023-03-05T05:10:53;4.50;;;3.40;;
4529;SDS011;2277;51.626;7.516;2023-03-05T05:13:20;2.63;;;2.43;;
4529;SDS011;2277;51.626;7.516;2023-03-05T05:15:45;3.80;;;2.57;;
4529;SDS011;2277;51.626;7.516;2023-03-05T05:18:11;3.17;;;2.37;;
4529;SDS011;2277;51.626;7.516;2023-03-05T05:20:37;3.33;;;2.93;;
4529;SDS011;2277;51.626;7.516;2023-03-05T05:23:02;2.77;;;2.50;;
4529;SDS011;2277;51.626;7.516;2023-03-05T05:25:28;2.40;;;2.20;;
4529;SDS011;2277;51.626;7.516;2023-03-05T05:27:53;3.50;;;2.70;;
4529;SDS011;2277;51.626;7.516;2023-03-05T05:30:19;3.87;;;3.57;;
4529;SDS011;2277;51.626;7.516;2023-03-05T05:32:45;4.57;;;3.40;;
4529;SDS011;2277;51.626;7.516;2023-03-05T05:35:10;4.67;;;3.97;;
4529;SDS011;2277;51.626;7.516;2023-03-05T05:37:36;3.97;;;3.67;;
4529;SDS011;2277;51.626;7.516;2023-03-05T05:40:02;3.33;;;3.13;;
4529;SDS011;2277;51.626;7.516;2023-03-05T05:42:29;4.00;;;2.70;;
4529;SDS011;2277;51.626;7.516;2023-03-05T05:44:55;3.37;;;3.07;;
4529;SDS011;2277;51.626;7.516;2023-03-05T05:47:20;4.30;;;4.00;;
4529;SDS011;2277;51.626;7.516;2023-03-05T05:49:46;3.30;;;2.40;;
4529;SDS011;2277;51.626;7.516;2023-03-05T05:52:13;2.70;;;2.27;;
4529;SDS011;2277;51.626;7.516;2023-03-05T05:54:38;2.20;;;2.00;;
4529;SDS011;2277;51.626;7.516;2023-03-05T05:57:04;3.00;;;2.27;;
4529;SDS011;2277;51.626;7.516;2023-03-05T05:59:30;1.90;;;1.67;;
4529;SDS011;2277;51.626;7.516;2023-03-05T06:01:56;3.70;;;3.50;;
4529;SDS011;2277;51.626;7.516;2023-03-05T06:04:21;2.70;;;2.50;;
4529;SDS011;2277;51.626;7.516;2023-03-05T06:06:47;11.10;;;2.43;;
4529;SDS011;2277;51.626;7.516;2023-03-05T06:09:12;2.73;;;1.70;;
4529;SDS011;2277;51.626;7.516;2023-03-05T06:11:38;4.53;;;2.10;;
4529;SDS011;2277;51.626;7.516;2023-03-05T06:14:04;3.03;;;2.80;;
4529;SDS011;2277;51.626;7.516;2023-03-05T06:16:31;1.97;;;1.80;;
4529;SDS011;2277;51.626;7.516;2023-03-05T06:18:57;2.03;;;1.50;;
4529;SDS011;2277;51.626;7.516;2023-03-05T06:21:23;2.00;;;1.63;;
4529;SDS011;2277;51.626;7.516;2023-03-05T06:23:49;2.30;;;1.80;;
4529;SDS011;2277;51.626;7.516;2023-03-05T06:26:16;5.03;;;2.33;;
4529;SDS011;2277;51.626;7.516;2023-03-05T06:28:44;4.07;;;2.70;;
4529;SDS011;2277;51.626;7.516;2023-03-05T06:31:11;6.53;;;3.10;;
4529;SDS011;2277;51.626;7.516;2023-03-05T06:33:38;5.93;;;2.57;;
4529;SDS011;2277;51.626;7.516;2023-03-05T06:36:05;9.57;;;4.90;;
4529;SDS011;2277;51.626;7.516;2023-03-05T06:38:33;6.50;;;3.27;;
4529;SDS011;2277;51.626;7.516;2023-03-05T06:40:59;7.20;;;3.23;;
4529;SDS011;2277;51.626;7.516;2023-03-05T06:43:26;7.50;;;3.73;;
4529;SDS011;2277;51.626;7.516;2023-03-05T06:46:04;3.17;;;2.87;;
4529;SDS011;2277;51.626;7.516;2023-03-05T06:48:42;3.40;;;2.80;;
4529;SDS011;2277;51.626;7.516;2023-03-05T06:53:43;4.20;;;3.80;;
4529;SDS011;2277;51.626;7.516;2023-03-05T06:56:10;3.90;;;3.10;;
4529;SDS011;2277;51.626;7.516;2023-03-05T06:58:38;4.27;;;2.50;;
4529;SDS011;2277;51.626;7.516;2023-03-05T07:01:05;8.83;;;3.63;;
4529;SDS011;2277;51.626;7.516;2023-03-05T07:03:31;3.63;;;3.10;;
4529;SDS011;2277;51.626;7.516;2023-03-05T07:06:01;3.77;;;2.57;;
4529;SDS011;2277;51.626;7.516;2023-03-05T07:08:28;3.70;;;2.93;;
4529;SDS011;2277;51.626;7.516;2023-03-05T07:10:54;3.87;;;3.47;;
4529;SDS011;2277;51.626;7.516;2023-03-05T07:13:19;3.07;;;2.77;;
4529;SDS011;2277;51.626;7.516;2023-03-05T07:15:45;10.70;;;3.77;;
4529;SDS011;2277;51.626;7.516;2023-03-05T07:18:10;6.43;;;3.73;;
4529;SDS011;2277;51.626;7.516;2023-03-05T07:20:36;3.80;;;3.50;;
4529;SDS011;2277;51.626;7.516;2023-03-05T07:23:02;3.30;;;2.17;;
4529;SDS011;2277;51.626;7.516;2023-03-05T07:25:28;3.87;;;3.10;;
4529;SDS011;2277;51.626;7.516;2023-03-05T07:27:53;4.17;;;3.70;;
4529;SDS011;2277;51.626;7.516;2023-03-05T07:30:19;2.90;;;2.47;;
4529;SDS011;2277;51.626;7.516;2023-03-05T07:32:45;6.00;;;4.80;;
4529;SDS011;2277;51.626;7.516;2023-03-05T07:35:11;2.77;;;2.57;;
4529;SDS011;2277;51.626;7.516;2023-03-05T07:37:37;13.30;;;4.57;;
4529;SDS011;2277;51.626;7.516;2023-03-05T07:40:02;3.60;;;3.30;;
4529;SDS011;2277;51.626;7.516;2023-03-05T07:42:29;3.53;;;3.27;;
4529;SDS011;2277;51.626;7.516;2023-03-05T07:44:55;3.70;;;3.37;;
4529;SDS011;2277;51.626;7.516;2023-03-05T07:47:20;6.13;;;2.70;;
4529;SDS011;2277;51.626;7.516;2023-03-05T07:49:47;3.90;;;2.87;;
4529;SDS011;2277;51.626;7.516;2023-03-05T07:52:14;3.10;;;2.80;;
4529;SDS011;2277;51.626;7.516;2023-03-05T07:54:39;4.00;;;3.40;;
4529;SDS011;2277;51.626;7.516;2023-03-05T07:57:06;5.23;;;4.73;;
4529;SDS011;2277;51.626;7.516;2023-03-05T07:59:32;15.43;;;4.50;;
4529;SDS011;2277;51.626;7.516;2023-03-05T08:01:58;3.70;;;3.40;;
4529;SDS011;2277;51.626;7.516;2023-03-05T08:04:24;3.50;;;3.20;;
4529;SDS011;2277;51.626;7.516;2023-03-05T08:06:50;3.70;;;3.03;;
4529;SDS011;2277;51.626;7.516;2023-03-05T08:09:15;7.33;;;3.80;;
4529;SDS011;2277;51.626;7.516;2023-03-05T08:11:42;2.93;;;2.73;;
4529;SDS011;2277;51.626;7.516;2023-03-05T08:14:08;8.30;;;4.50;;
4529;SDS011;2277;51.626;7.516;2023-03-05T08:16:34;5.50;;;2.63;;
4529;SDS011;2277;51.626;7.516;2023-03-05T08:19:00;2.77;;;2.57;;
4529;SDS011;2277;51.626;7.516;2023-03-05T08:21:27;7.53;;;2.83;;
4529;SDS011;2277;51.626;7.516;2023-03-05T08:23:55;6.53;;;3.80;;
4529;SDS011;2277;51.626;7.516;2023-03-05T08:26:22;4.07;;;2.90;;
4529;SDS011;2277;51.626;7.516;2023-03-05T08:28:49;4.67;;;3.27;;
4529;SDS011;2277;51.626;7.516;2023-03-05T08:31:16;3.40;;;3.10;;
4529;SDS011;2277;51.626;7.516;2023-03-05T08:33:45;5.40;;;4.90;;
4529;SDS011;2277;51.626;7.516;2023-03-05T08:36:11;3.23;;;2.90;;
4529;SDS011;2277;51.626;7.516;2023-03-05T08:38:37;3.80;;;2.30;;
4529;SDS011;2277;51.626;7.516;2023-03-05T08:41:03;3.73;;;3.40;;
4529;SDS011;2277;51.626;7.516;2023-03-05T08:43:29;2.57;;;2.37;;
4529;SDS011;2277;51.626;7.516;2023-03-05T08:45:55;4.47;;;2.80;;
4529;SDS011;2277;51.626;7.516;2023-03-05T08:48:21;3.57;;;3.27;;
4529;SDS011;2277;51.626;7.516;2023-03-05T08:50:47;4.80;;;3.23;;
4529;SDS011;2277;51.626;7.516;2023-03-05T08:53:13;6.40;;;4.27;;
4529;SDS011;2277;51.626;7.516;2023-03-05T08:55:39;2.43;;;2.17;;
4529;SDS011;2277;51.626;7.516;2023-03-05T08:58:05;3.13;;;2.80;;
4529;SDS011;2277;51.626;7.516;2023-03-05T09:00:31;4.00;;;2.87;;
4529;SDS011;2277;51.626;7.516;2023-03-05T09:02:56;4.80;;;4.40;;
4529;SDS011;2277;51.626;7.516;2023-03-05T09:05:22;3.77;;;2.97;;
4529;SDS011;2277;51.626;7.516;2023-03-05T09:07:48;3.13;;;2.93;;
4529;SDS011;2277;51.626;7.516;2023-03-05T09:10:13;3.00;;;1.97;;
4529;SDS011;2277;51.626;7.516;2023-03-05T09:12:40;3.33;;;2.63;;
4529;SDS011;2277;51.626;7.516;2023-03-05T09:15:06;11.07;;;3.27;;
4529;SDS011;2277;51.626;7.516;2023-03-05T09:17:33;2.80;;;2.57;;
4529;SDS011;2277;51.626;7.516;2023-03-05T09:20:00;3.30;;;3.00;;
4529;SDS011;2277;51.626;7.516;2023-03-05T09:22:27;4.43;;;2.67;;
4529;SDS011;2277;51.626;7.516;2023-03-05T09:24:53;4.60;;;1.90;;
4529;SDS011;2277;51.626;7.516;2023-03-05T09:27:19;3.43;;;2.27;;
4529;SDS011;2277;51.626;7.516;2023-03-05T09:29:45;3.80;;;1.53;;
4529;SDS011;2277;51.626;7.516;2023-03-05T09:32:10;2.97;;;2.30;;
4529;SDS011;2277;51.626;7.516;2023-03-05T09:34:36;1.73;;;1.63;;
4529;SDS011;2277;51.626;7.516;2023-03-05T09:37:02;1.73;;;1.63;;
4529;SDS011;2277;51.626;7.516;2023-03-05T09:39:28;2.10;;;1.87;;
4529;SDS011;2277;51.626;7.516;2023-03-05T09:47:47;1.90;;;1.80;;
4529;SDS011;2277;51.626;7.516;2023-03-05T09:55:52;3.13;;;2.10;;
4529;SDS011;2277;51.626;7.516;2023-03-05T10:01:09;4.50;;;1.90;;
4529;SDS011;2277;51.626;7.516;2023-03-05T10:09:11;2.37;;;1.67;;
4529;SDS011;2277;51.626;7.516;2023-03-05T10:11:56;2.83;;;2.60;;
4529;SDS011;2277;51.626;7.516;2023-03-05T10:14:28;1.40;;;1.30;;
4529;SDS011;2277;51.626;7.516;2023-03-05T10:19:54;2.70;;;1.40;;
4529;SDS011;2277;51.626;7.516;2023-03-05T10:22:52;2.90;;;2.30;;
4529;SDS011;2277;51.626;7.516;2023-03-05T10:31:06;1.93;;;1.43;;
4529;SDS011;2277;51.626;7.516;2023-03-05T10:39:31;1.50;;;1.10;;
4529;SDS011;2277;51.626;7.516;2023-03-05T10:48:01;3.63;;;1.20;;
4529;SDS011;2277;51.626;7.516;2023-03-05T10:50:56;1.53;;;1.37;;
4529;SDS011;2277;51.626;7.516;2023-03-05T10:53:58;1.43;;;1.30;;
4529;SDS011;2277;51.626;7.516;2023-03-05T10:56:24;1.43;;;1.33;;
4529;SDS011;2277;51.626;7.516;2023-03-05T10:58:51;1.87;;;1.77;;
4529;SDS011;2277;51.626;7.516;2023-03-05T11:01:18;1.30;;;0.90;;
4529;SDS011;2277;51.626;7.516;2023-03-05T11:06:12;1.20;;;1.03;;
4529;SDS011;2277;51.626;7.516;2023-03-05T11:08:38;1.33;;;1.17;;
4529;SDS011;2277;51.626;7.516;2023-03-05T11:11:15;1.47;;;1.33;;
4529;SDS011;2277;51.626;7.516;2023-03-05T11:13:43;3.70;;;2.70;;
4529;SDS011;2277;51.626;7.516;2023-03-05T11:16:18;1.20;;;1.00;;
4529;SDS011;2277;51.626;7.516;2023-03-05T11:18:49;1.60;;;1.03;;
4529;SDS011;2277;51.626;7.516;2023-03-05T11:24:02;1.20;;;0.93;;
4529;SDS011;2277;51.626;7.516;2023-03-05T11:26:49;1.63;;;1.30;;
4529;SDS011;2277;51.626;7.516;2023-03-05T11:29:21;1.40;;;1.20;;
4529;SDS011;2277;51.626;7.516;2023-03-05T11:31:48;1.10;;;1.00;;
4529;SDS011;2277;51.626;7.516;2023-03-05T11:39:15;1.43;;;1.13;;
4529;SDS011;2277;51.626;7.516;2023-03-05T11:44:13;1.30;;;1.17;;
4529;SDS011;2277;51.626;7.516;2023-03-05T11:46:53;2.50;;;2.30;;
4529;SDS011;2277;51.626;7.516;2023-03-05T11:49:24;1.23;;;0.90;;
4529;SDS011;2277;51.626;7.516;2023-03-05T11:54:27;1.60;;;1.30;;
4529;SDS011;2277;51.626;7.516;2023-03-05T11:56:59;1.57;;;1.00;;
4529;SDS011;2277;51.626;7.516;2023-03-05T11:59:28;8.23;;;1.00;;
4529;SDS011;2277;51.626;7.516;2023-03-05T12:01:58;1.93;;;1.33;;
4529;SDS011;2277;51.626;7.516;2023-03-05T12:04:24;1.20;;;0.80;;
4529;SDS011;2277;51.626;7.516;2023-03-05T12:06:53;1.40;;;1.20;;
4529;SDS011;2277;51.626;7.516;2023-03-05T12:09:39;1.50;;;1.40;;
4529;SDS011;2277;51.626;7.516;2023-03-05T12:21:35;1.63;;;1.53;;
4529;SDS011;2277;51.626;7.516;2023-03-05T12:24:20;2.33;;;2.10;;
4529;SDS011;2277;51.626;7.516;2023-03-05T12:31:57;1.50;;;1.40;;
4529;SDS011;2277;51.626;7.516;2023-03-05T12:34:34;1.73;;;1.47;;
4529;SDS011;2277;51.626;7.516;2023-03-05T12:37:00;4.47;;;3.90;;
4529;SDS011;2277;51.626;7.516;2023-03-05T12:47:40;3.47;;;1.77;;
4529;SDS011;2277;51.626;7.516;2023-03-05T12:52:54;2.60;;;1.10;;
4529;SDS011;2277;51.626;7.516;2023-03-05T12:55:28;2.10;;;1.53;;
4529;SDS011;2277;51.626;7.516;2023-03-05T13:03:32;1.47;;;0.90;;
4529;SDS011;2277;51.626;7.516;2023-03-05T13:06:03;1.87;;;1.47;;
4529;SDS011;2277;51.626;7.516;2023-03-05T13:08:31;1.40;;;0.87;;
4529;SDS011;2277;51.626;7.516;2023-03-05T13:11:02;1.67;;;0.93;;
4529;SDS011;2277;51.626;7.516;2023-03-05T13:13:34;1.57;;;1.33;;
4529;SDS011;2277;51.626;7.516;2023-03-05T13:16:02;2.43;;;1.40;;
4529;SDS011;2277;51.626;7.516;2023-03-05T13:18:29;2.20;;;1.13;;
4529;SDS011;2277;51.626;7.516;2023-03-05T13:21:03;2.60;;;1.67;;
4529;SDS011;2277;51.626;7.516;2023-03-05T13:23:32;2.00;;;1.30;;
4529;SDS011;2277;51.626;7.516;2023-03-05T13:28:44;2.80;;;1.60;;
4529;SDS011;2277;51.626;7.516;2023-03-05T13:31:46;5.43;;;2.70;;
4529;SDS011;2277;51.626;7.516;2023-03-05T13:34:24;3.40;;;2.90;;
4529;SDS011;2277;51.626;7.516;2023-03-05T13:39:49;1.47;;;1.37;;
4529;SDS011;2277;51.626;7.516;2023-03-05T13:42:29;2.10;;;1.60;;
4529;SDS011;2277;51.626;7.516;2023-03-05T13:47:50;1.83;;;1.70;;
4529;SDS011;2277;51.626;7.516;2023-03-05T13:50:21;1.80;;;1.57;;
4529;SDS011;2277;51.626;7.516;2023-03-05T13:53:30;1.57;;;1.17;;
4529;SDS011;2277;51.626;7.516;2023-03-05T13:55:50;1.67;;;1.57;;
4529;SDS011;2277;51.626;7.516;2023-03-05T14:03:38;1.70;;;1.60;;
4529;SDS011;2277;51.626;7.516;2023-03-05T14:06:06;2.90;;;0.80;;
4529;SDS011;2277;51.626;7.516;2023-03-05T14:08:37;1.10;;;1.00;;
4529;SDS011;2277;51.626;7.516;2023-03-05T14:11:10;1.27;;;0.80;;
4529;SDS011;2277;51.626;7.516;2023-03-05T14:13:40;1.13;;;1.00;;
4529;SDS011;2277;51.626;7.516;2023-03-05T14:16:11;1.00;;;0.90;;
4529;SDS011;2277;51.626;7.516;2023-03-05T14:19:02;1.63;;;1.37;;
4529;SDS011;2277;51.626;7.516;2023-03-05T14:21:44;1.93;;;1.23;;
4529;SDS011;2277;51.626;7.516;2023-03-05T14:24:21;1.83;;;1.57;;
4529;SDS011;2277;51.626;7.516;2023-03-05T14:26:54;3.23;;;0.90;;
4529;SDS011;2277;51.626;7.516;2023-03-05T14:29:27;1.20;;;1.00;;
4529;SDS011;2277;51.626;7.516;2023-03-05T14:31:54;2.60;;;1.17;;
4529;SDS011;2277;51.626;7.516;2023-03-05T14:36:57;3.33;;;1.20;;
4529;SDS011;2277;51.626;7.516;2023-03-05T14:39:31;2.53;;;1.50;;
4529;SDS011;2277;51.626;7.516;2023-03-05T14:44:54;1.20;;;1.00;;
4529;SDS011;2277;51.626;7.516;2023-03-05T14:47:24;5.73;;;1.57;;
4529;SDS011;2277;51.626;7.516;2023-03-05T14:49:51;1.47;;;1.17;;
4529;SDS011;2277;51.626;7.516;2023-03-05T14:52:17;1.10;;;0.80;;
4529;SDS011;2277;51.626;7.516;2023-03-05T14:54:45;1.87;;;1.00;;
4529;SDS011;2277;51.626;7.516;2023-03-05T14:57:15;1.10;;;0.90;;
4529;SDS011;2277;51.626;7.516;2023-03-05T14:59:45;2.97;;;1.50;;
4529;SDS011;2277;51.626;7.516;2023-03-05T15:02:12;2.17;;;1.40;;
4529;SDS011;2277;51.626;7.516;2023-03-05T15:04:44;1.10;;;0.90;;
4529;SDS011;2277;51.626;7.516;2023-03-05T15:07:21;1.20;;;0.90;;
4529;SDS011;2277;51.626;7.516;2023-03-05T15:09:54;1.50;;;0.97;;
4529;SDS011;2277;51.626;7.516;2023-03-05T15:12:19;1.60;;;1.40;;
4529;SDS011;2277;51.626;7.516;2023-03-05T15:14:48;2.33;;;1.97;;
4529;SDS011;2277;51.626;7.516;2023-03-05T15:17:23;2.93;;;1.37;;
4529;SDS011;2277;51.626;7.516;2023-03-05T15:19:54;2.93;;;1.53;;
4529;SDS011;2277;51.626;7.516;2023-03-05T15:22:19;1.20;;;1.10;;
4529;SDS011;2277;51.626;7.516;2023-03-05T15:24:45;2.10;;;1.70;;
4529;SDS011;2277;51.626;7.516;2023-03-05T15:27:11;1.80;;;1.30;;
4529;SDS011;2277;51.626;7.516;2023-03-05T15:29:38;1.60;;;1.00;;
4529;SDS011;2277;51.626;7.516;2023-03-05T15:32:04;1.77;;;1.67;;
4529;SDS011;2277;51.626;7.516;2023-03-05T15:34:30;1.30;;;1.20;;
4529;SDS011;2277;51.626;7.516;2023-03-05T15:36:57;1.47;;;1.17;;
4529;SDS011;2277;51.626;7.516;2023-03-05T15:39:23;1.60;;;1.50;;
4529;SDS011;2277;51.626;7.516;2023-03-05T15:41:50;1.93;;;1.80;;
4529;SDS011;2277;51.626;7.516;2023-03-05T15:44:16;1.60;;;1.40;;
4529;SDS011;2277;51.626;7.516;2023-03-05T15:46:43;5.03;;;2.50;;
4529;SDS011;2277;51.626;7.516;2023-03-05T15:49:08;2.67;;;1.60;;
4529;SDS011;2277;51.626;7.516;2023-03-05T15:51:34;1.60;;;1.50;;
4529;SDS011;2277;51.626;7.516;2023-03-05T15:54:00;2.70;;;1.30;;
4529;SDS011;2277;51.626;7.516;2023-03-05T15:56:25;1.90;;;1.60;;
4529;SDS011;2277;51.626;7.516;2023-03-05T15:58:51;2.30;;;1.00;;
4529;SDS011;2277;51.626;7.516;2023-03-05T16:01:16;1.83;;;1.70;;
4529;SDS011;2277;51.626;7.516;2023-03-05T16:03:47;2.20;;;2.00;;
4529;SDS011;2277;51.626;7.516;2023-03-05T16:06:16;4.60;;;2.30;;
4529;SDS011;2277;51.626;7.516;2023-03-05T16:08:46;3.00;;;2.10;;
4529;SDS011;2277;51.626;7.516;2023-03-05T16:11:14;2.60;;;1.03;;
4529;SDS011;2277;51.626;7.516;2023-03-05T16:13:40;2.27;;;1.30;;
4529;SDS011;2277;51.626;7.516;2023-03-05T16:16:06;1.80;;;1.27;;
4529;SDS011;2277;51.626;7.516;2023-03-05T16:18:33;1.30;;;1.20;;
4529;SDS011;2277;51.626;7.516;2023-03-05T16:21:03;1.43;;;1.33;;
4529;SDS011;2277;51.626;7.516;2023-03-05T16:23:29;2.60;;;1.80;;
4529;SDS011;2277;51.626;7.516;2023-03-05T16:25:54;2.23;;;1.43;;
4529;SDS011;2277;51.626;7.516;2023-03-05T16:28:20;1.70;;;1.60;;
4529;SDS011;2277;51.626;7.516;2023-03-05T16:30:51;2.20;;;1.80;;
4529;SDS011;2277;51.626;7.516;2023-03-05T16:33:20;1.77;;;1.60;;
4529;SDS011;2277;51.626;7.516;2023-03-05T16:35:49;3.60;;;1.93;;
4529;SDS011;2277;51.626;7.516;2023-03-05T16:38:32;1.50;;;1.30;;
4529;SDS011;2277;51.626;7.516;2023-03-05T16:40:57;2.50;;;1.50;;
4529;SDS011;2277;51.626;7.516;2023-03-05T16:43:23;1.37;;;1.27;;
4529;SDS011;2277;51.626;7.516;2023-03-05T16:45:48;1.50;;;1.40;;
4529;SDS011;2277;51.626;7.516;2023-03-05T16:48:14;1.63;;;1.53;;
4529;SDS011;2277;51.626;7.516;2023-03-05T16:50:40;1.60;;;1.50;;
4529;SDS011;2277;51.626;7.516;2023-03-05T16:53:05;2.47;;;2.27;;
4529;SDS011;2277;51.626;7.516;2023-03-05T16:55:31;3.77;;;2.20;;
4529;SDS011;2277;51.626;7.516;2023-03-05T16:57:57;1.77;;;1.60;;
4529;SDS011;2277;51.626;7.516;2023-03-05T17:00:22;1.73;;;1.50;;
4529;SDS011;2277;51.626;7.516;2023-03-05T17:02:48;4.00;;;2.10;;
4529;SDS011;2277;51.626;7.516;2023-03-05T17:05:14;1.63;;;1.43;;
4529;SDS011;2277;51.626;7.516;2023-03-05T17:07:40;2.07;;;1.83;;
4529;SDS011;2277;51.626;7.516;2023-03-05T17:10:05;1.50;;;1.40;;